createdAt,value
2023-04-23T00:02:49.980Z,15.72
2023-04-23T00:05:18.194Z,15.97
2023-04-23T00:07:46.425Z,16.12
2023-04-23T00:10:14.958Z,16.50
2023-04-23T00:12:43.676Z,15.63
2023-04-23T00:15:14.706Z,16.39
2023-04-23T00:17:42.418Z,16.60
2023-04-23T00:20:11.872Z,17.27
2023-04-23T00:22:39.517Z,16.96
2023-04-23T00:25:07.855Z,16.44
2023-04-23T00:27:35.936Z,15.55
2023-04-23T00:30:04.272Z,16.36
2023-04-23T00:32:34.976Z,16.35
2023-04-23T00:35:02.666Z,16.61
2023-04-23T00:37:31.722Z,16.25
2023-04-23T00:39:59.364Z,15.91
2023-04-23T00:42:28.206Z,16.32
2023-04-23T00:44:56.002Z,15.71
2023-04-23T00:47:24.280Z,17.08
2023-04-23T00:49:53.279Z,16.68
2023-04-23T00:52:21.267Z,17.19
2023-04-23T00:54:50.354Z,16.50
2023-04-23T00:57:18.132Z,16.19
2023-04-23T00:59:46.164Z,15.93
2023-04-23T01:02:13.910Z,16.32
2023-04-23T01:04:42.401Z,16.10
2023-04-23T01:07:10.519Z,16.04
2023-04-23T01:09:38.216Z,15.87
2023-04-23T01:12:08.036Z,16.38
2023-04-23T01:14:38.239Z,16.12
2023-04-23T01:17:09.838Z,16.23
2023-04-23T01:19:37.810Z,15.18
2023-04-23T01:22:10.589Z,15.86
2023-04-23T01:24:39.555Z,17.01
2023-04-23T01:27:28.362Z,16.85
2023-04-23T01:29:56.347Z,16.55
2023-04-23T01:32:24.346Z,16.56
2023-04-23T01:34:54.091Z,17.19
2023-04-23T01:37:23.741Z,17.03
2023-04-23T01:39:51.585Z,15.52
2023-04-23T01:42:19.567Z,16.76
2023-04-23T01:44:47.263Z,18.04
2023-04-23T01:47:15.163Z,17.63
2023-04-23T01:49:42.948Z,17.46
2023-04-23T01:52:11.361Z,17.89
2023-04-23T01:54:40.824Z,18.37
2023-04-23T01:57:09.008Z,18.64
2023-04-23T01:59:59.173Z,16.84
2023-04-23T02:02:26.932Z,17.59
2023-04-23T02:04:55.318Z,17.31
2023-04-23T02:07:23.047Z,17.66
2023-04-23T02:09:52.085Z,17.39
2023-04-23T02:12:19.821Z,17.09
2023-04-23T02:14:47.479Z,16.68
2023-04-23T02:17:15.140Z,17.21
2023-04-23T02:19:42.857Z,17.01
2023-04-23T02:22:10.497Z,16.99
2023-04-23T02:24:39.000Z,17.41
2023-04-23T02:27:08.280Z,17.77
2023-04-23T02:29:36.849Z,18.04
2023-04-23T02:32:04.927Z,18.20
2023-04-23T02:34:32.731Z,16.97
2023-04-23T02:37:00.379Z,17.81
2023-04-23T02:39:28.026Z,16.36
2023-04-23T02:41:56.367Z,17.49
2023-04-23T02:44:25.494Z,16.48
2023-04-23T02:46:53.272Z,16.94
2023-04-23T02:49:21.194Z,16.67
2023-04-23T02:51:48.909Z,17.12
2023-04-23T02:54:16.621Z,16.64
2023-04-23T02:56:44.232Z,16.44
2023-04-23T02:59:12.510Z,16.49
2023-04-23T03:01:41.735Z,16.37
2023-04-23T03:04:12.375Z,16.64
2023-04-23T03:06:40.516Z,15.92
2023-04-23T03:09:08.923Z,16.65
2023-04-23T03:11:36.676Z,16.96
2023-04-23T03:14:04.425Z,16.75
2023-04-23T03:16:32.390Z,16.95
2023-04-23T03:19:02.220Z,16.66
2023-04-23T03:21:29.886Z,16.82
2023-04-23T03:23:57.513Z,16.41
2023-04-23T03:26:25.256Z,16.16
2023-04-23T03:28:52.955Z,16.42
2023-04-23T03:31:20.913Z,17.12
2023-04-23T03:33:48.645Z,16.79
2023-04-23T03:36:17.709Z,16.32
2023-04-23T03:38:45.337Z,16.81
2023-04-23T03:41:12.986Z,16.82
2023-04-23T03:43:40.661Z,17.14
2023-04-23T03:46:08.330Z,16.04
2023-04-23T03:48:36.090Z,17.28
2023-04-23T03:51:03.738Z,16.81
2023-04-23T03:53:32.796Z,16.37
2023-04-23T03:56:00.460Z,16.46
2023-04-23T03:58:28.092Z,16.38
2023-04-23T04:00:56.013Z,16.13
2023-04-23T04:03:23.863Z,16.16
2023-04-23T04:05:51.919Z,16.55
2023-04-23T04:08:19.802Z,15.87
2023-04-23T04:10:48.864Z,15.52
2023-04-23T04:13:17.115Z,16.47
2023-04-23T04:15:45.086Z,16.62
2023-04-23T04:18:12.768Z,16.85
2023-04-23T04:20:43.353Z,15.92
2023-04-23T04:23:10.999Z,16.91
2023-04-23T04:25:40.207Z,16.57
2023-04-23T04:28:11.685Z,16.73
2023-04-23T04:30:39.811Z,17.20
2023-04-23T04:33:07.438Z,16.44
2023-04-23T04:35:35.057Z,17.48
2023-04-23T04:38:02.733Z,17.59
2023-04-23T04:40:30.523Z,16.85
2023-04-23T04:43:00.213Z,17.26
2023-04-23T04:45:29.316Z,16.64
2023-04-23T04:47:56.998Z,16.96
2023-04-23T04:50:24.699Z,17.38
2023-04-23T04:52:52.474Z,16.16
2023-04-23T04:55:20.388Z,17.70
2023-04-23T04:57:48.020Z,17.48
2023-04-23T05:00:24.363Z,17.83
2023-04-23T05:02:53.698Z,17.72
2023-04-23T05:05:23.145Z,17.31
2023-04-23T05:07:51.093Z,17.30
2023-04-23T05:10:19.168Z,17.37
2023-04-23T05:12:46.809Z,17.38
2023-04-23T05:15:15.205Z,18.06
2023-04-23T05:17:43.270Z,17.33
2023-04-23T05:22:54.935Z,17.19
2023-04-23T05:25:22.907Z,17.98
2023-04-23T05:27:50.575Z,17.18
2023-04-23T05:30:18.241Z,18.56
2023-04-23T05:32:46.034Z,19.14
2023-04-23T05:35:15.138Z,17.78
2023-04-23T05:37:42.802Z,17.04
2023-04-23T05:40:11.257Z,18.14
2023-04-23T05:42:38.960Z,17.23
2023-04-23T05:45:09.082Z,18.34
2023-04-23T05:48:01.338Z,17.86
2023-04-23T05:50:30.666Z,18.76
2023-04-23T05:52:58.374Z,18.38
2023-04-23T05:55:26.275Z,18.18
2023-04-23T05:57:54.214Z,18.54
2023-04-23T06:00:21.908Z,18.29
2023-04-23T06:02:49.725Z,18.63
2023-04-23T06:05:17.590Z,18.18
2023-04-23T06:07:47.022Z,18.48
2023-04-23T06:10:14.733Z,18.52
2023-04-23T06:12:42.516Z,18.89
2023-04-23T06:15:11.540Z,18.99
2023-04-23T06:17:39.988Z,18.60
2023-04-23T06:20:10.789Z,18.96
2023-04-23T06:22:38.972Z,19.12
2023-04-23T06:25:09.021Z,19.00
2023-04-23T06:27:36.697Z,18.96
2023-04-23T06:30:04.792Z,19.33
2023-04-23T06:32:32.747Z,18.99
2023-04-23T06:35:01.965Z,19.63
2023-04-23T06:37:32.152Z,19.17
2023-04-23T06:40:00.340Z,19.87
2023-04-23T06:42:29.413Z,19.68
2023-04-23T06:44:59.543Z,18.86
2023-04-23T06:47:27.277Z,19.83
2023-04-23T06:49:54.961Z,20.46
2023-04-23T06:52:22.637Z,20.32
2023-04-23T06:54:50.296Z,20.95
2023-04-23T06:57:18.448Z,19.84
2023-04-23T06:59:47.523Z,20.39
2023-04-23T07:02:15.564Z,21.61
2023-04-23T07:04:43.710Z,21.24
2023-04-23T07:07:12.096Z,20.18
2023-04-23T07:09:39.814Z,20.75
2023-04-23T07:12:07.521Z,20.75
2023-04-23T07:14:35.634Z,21.37
2023-04-23T07:17:04.899Z,21.66
2023-04-23T07:19:32.581Z,21.14
2023-04-23T07:22:00.378Z,20.69
2023-04-23T07:24:28.171Z,21.11
2023-04-23T07:26:56.116Z,21.92
2023-04-23T07:29:23.902Z,21.81
2023-04-23T07:31:51.692Z,21.57
2023-04-23T07:34:21.195Z,20.70
2023-04-23T07:36:48.860Z,20.86
2023-04-23T07:39:16.776Z,19.41
2023-04-23T07:41:44.547Z,20.72
2023-04-23T07:44:12.522Z,21.61
2023-04-23T07:46:40.453Z,20.16
2023-04-23T07:49:08.606Z,20.29
2023-04-23T07:51:37.825Z,19.26
2023-04-23T07:54:05.836Z,19.06
2023-04-23T07:56:34.272Z,19.94
2023-04-23T07:59:01.956Z,20.49
2023-04-23T08:01:29.922Z,20.01
2023-04-23T08:03:59.671Z,20.34
2023-04-23T08:06:29.926Z,20.20
2023-04-23T08:09:00.511Z,19.59
2023-04-23T08:11:29.614Z,20.11
2023-04-23T08:13:57.802Z,20.84
2023-04-23T08:16:25.546Z,19.50
2023-04-23T08:19:04.111Z,21.16
2023-04-23T08:21:32.964Z,21.47
2023-04-23T08:24:03.125Z,21.84
2023-04-23T08:26:31.156Z,22.02
2023-04-23T08:29:00.633Z,21.54
2023-04-23T08:31:28.626Z,20.93
2023-04-23T08:33:56.557Z,20.80
2023-04-23T08:36:24.472Z,21.76
2023-04-23T08:38:52.491Z,21.68
2023-04-23T08:41:24.582Z,21.66
2023-04-23T08:43:54.344Z,21.32
2023-04-23T08:46:22.708Z,21.48
2023-04-23T08:48:52.337Z,22.33
2023-04-23T08:51:20.720Z,22.14
2023-04-23T08:53:52.329Z,21.05
2023-04-23T08:56:22.730Z,21.59
2023-04-23T08:58:51.607Z,22.07
2023-04-23T09:01:19.690Z,20.77
2023-04-23T09:03:47.848Z,22.33
2023-04-23T09:06:15.624Z,22.32
2023-04-23T09:08:43.376Z,20.81
2023-04-23T09:11:11.217Z,19.87
2023-04-23T09:13:41.619Z,21.96
2023-04-23T09:16:10.263Z,21.01
2023-04-23T09:18:38.824Z,22.43
2023-04-23T09:21:07.072Z,22.80
2023-04-23T09:23:34.774Z,22.22
2023-04-23T09:26:07.064Z,21.32
2023-04-23T09:28:38.544Z,20.68
2023-04-23T09:31:08.117Z,21.89
2023-04-23T09:33:36.617Z,23.04
2023-04-23T09:36:07.050Z,21.62
2023-04-23T09:38:35.634Z,21.19
2023-04-23T09:41:24.329Z,22.52
2023-04-23T09:43:54.525Z,23.76
2023-04-23T09:46:36.202Z,22.38
2023-04-23T09:49:07.706Z,23.85
2023-04-23T09:51:37.535Z,23.14
2023-04-23T09:54:05.988Z,24.26
2023-04-23T09:56:33.791Z,24.26
2023-04-23T09:59:01.580Z,24.62
2023-04-23T10:01:31.039Z,25.46
2023-04-23T10:04:00.698Z,24.21
2023-04-23T10:09:04.798Z,23.14
2023-04-23T10:11:32.536Z,25.03
2023-04-23T10:14:00.640Z,24.95
2023-04-23T10:16:38.670Z,26.07
2023-04-23T10:19:17.306Z,26.49
2023-04-23T10:21:52.705Z,25.79
2023-04-23T10:24:24.833Z,23.56
2023-04-23T10:26:54.107Z,26.17
2023-04-23T10:29:28.384Z,26.81
2023-04-23T10:31:56.992Z,26.10
2023-04-23T10:34:27.263Z,26.09
2023-04-23T10:36:56.695Z,25.62
2023-04-23T10:39:30.105Z,24.59
2023-04-23T10:41:58.685Z,24.46
2023-04-23T10:44:57.448Z,23.54
2023-04-23T10:47:22.894Z,25.06
2023-04-23T10:49:52.904Z,25.41
2023-04-23T10:52:24.362Z,26.58
2023-04-23T10:55:00.030Z,24.98
2023-04-23T10:57:28.147Z,23.75
2023-04-23T11:00:04.580Z,25.95
2023-04-23T11:02:44.835Z,24.66
2023-04-23T11:05:15.487Z,25.43
2023-04-23T11:07:43.119Z,24.98
2023-04-23T11:10:15.474Z,23.05
2023-04-23T11:12:43.283Z,23.34
2023-04-23T11:15:12.544Z,25.26
2023-04-23T11:18:03.863Z,25.14
2023-04-23T11:20:32.958Z,25.75
2023-04-23T11:23:00.973Z,24.80
2023-04-23T11:25:30.421Z,26.34
2023-04-23T11:27:59.439Z,25.56
2023-04-23T11:30:28.420Z,26.06
2023-04-23T11:33:00.040Z,23.80
2023-04-23T11:35:29.551Z,24.71
2023-04-23T11:37:58.691Z,23.95
2023-04-23T11:40:28.135Z,24.58
2023-04-23T11:42:57.558Z,26.34
2023-04-23T11:45:27.427Z,26.33
2023-04-23T11:47:57.073Z,25.20
2023-04-23T11:50:26.603Z,26.22
2023-04-23T11:52:54.920Z,25.91
2023-04-23T11:55:24.583Z,26.41
2023-04-23T11:57:53.570Z,26.88
2023-04-23T12:00:22.890Z,26.68
2023-04-23T12:02:54.547Z,27.06
2023-04-23T12:05:23.513Z,28.00
2023-04-23T12:07:52.353Z,26.96
2023-04-23T12:10:21.254Z,27.89
2023-04-23T12:12:54.368Z,27.52
2023-04-23T12:15:22.405Z,27.64
2023-04-23T12:17:51.550Z,27.72
2023-04-23T12:20:23.095Z,25.22
2023-04-23T12:22:50.753Z,27.05
2023-04-23T12:25:23.588Z,26.98
2023-04-23T12:27:51.651Z,27.43
2023-04-23T12:30:21.053Z,24.54
2023-04-23T12:32:48.766Z,25.07
2023-04-23T12:35:16.443Z,24.80
2023-04-23T12:37:45.434Z,26.77
2023-04-23T12:40:13.294Z,27.94
2023-04-23T12:42:40.912Z,26.30
2023-04-23T12:45:10.326Z,27.07
2023-04-23T12:47:39.554Z,27.28
2023-04-23T12:50:08.527Z,26.86
2023-04-23T12:52:36.350Z,26.81
2023-04-23T12:55:05.306Z,26.97
2023-04-23T12:57:33.076Z,28.06
2023-04-23T13:00:01.175Z,28.63
2023-04-23T13:02:29.135Z,27.66
2023-04-23T13:05:01.594Z,27.56
2023-04-23T13:07:29.272Z,26.18
2023-04-23T13:09:59.626Z,24.18
2023-04-23T13:12:27.480Z,24.14
2023-04-23T13:14:55.130Z,22.11
2023-04-23T13:17:23.417Z,20.86
2023-04-23T13:19:51.563Z,21.59
2023-04-23T13:22:20.879Z,20.74
2023-04-23T13:24:48.919Z,19.40
2023-04-23T13:27:16.624Z,19.39
2023-04-23T13:29:44.630Z,22.11
2023-04-23T13:32:12.642Z,22.81
2023-04-23T13:34:40.518Z,23.08
2023-04-23T13:37:09.401Z,23.54
2023-04-23T13:39:41.688Z,26.07
2023-04-23T13:42:10.289Z,26.68
2023-04-23T13:44:38.459Z,25.88
2023-04-23T13:47:06.253Z,27.27
2023-04-23T13:49:34.227Z,28.25
2023-04-23T13:52:04.392Z,29.29
2023-04-23T13:54:32.132Z,29.18
2023-04-23T13:57:01.467Z,29.78
2023-04-23T13:59:29.184Z,29.63
2023-04-23T14:01:57.118Z,29.56
2023-04-23T14:04:24.955Z,27.57
2023-04-23T14:06:52.826Z,28.85
2023-04-23T14:09:22.562Z,28.62
2023-04-23T14:11:50.461Z,31.11
2023-04-23T14:14:19.771Z,30.00
2023-04-23T14:16:47.589Z,27.61
2023-04-23T14:19:15.485Z,29.50
2023-04-23T14:21:43.146Z,28.14
2023-04-23T14:24:18.891Z,27.68
2023-04-23T14:26:49.779Z,28.78
2023-04-23T14:29:32.344Z,27.50
2023-04-23T14:31:59.982Z,27.65
2023-04-23T14:34:28.065Z,27.65
2023-04-23T14:36:55.739Z,27.51
2023-04-23T14:39:24.494Z,26.71
2023-04-23T14:41:52.629Z,27.49
2023-04-23T14:44:22.399Z,26.96
2023-04-23T14:46:51.617Z,27.17
2023-04-23T14:49:20.752Z,26.59
2023-04-23T14:51:50.065Z,26.87
2023-04-23T14:54:18.056Z,25.88
2023-04-23T14:56:45.989Z,27.09
2023-04-23T14:59:13.957Z,28.15
2023-04-23T15:01:41.772Z,27.89
2023-04-23T15:04:11.378Z,27.77
2023-04-23T15:06:40.451Z,28.03
2023-04-23T15:09:08.235Z,27.88
2023-04-23T15:11:38.982Z,28.89
2023-04-23T15:14:09.903Z,27.37
2023-04-23T15:19:11.442Z,27.64
2023-04-23T15:22:02.095Z,27.55
2023-04-23T15:24:30.314Z,26.92
2023-04-23T15:27:00.795Z,26.53
2023-04-23T15:29:28.532Z,26.15
2023-04-23T15:31:56.569Z,26.95
2023-04-23T15:34:25.627Z,27.04
2023-04-23T15:36:53.230Z,27.30
2023-04-23T15:39:21.396Z,26.32
2023-04-23T15:41:49.067Z,27.69
2023-04-23T15:44:18.182Z,26.61
2023-04-23T15:46:46.295Z,27.49
2023-04-23T15:49:13.924Z,27.01
2023-04-23T15:51:43.018Z,25.96
2023-04-23T15:54:10.891Z,26.16
2023-04-23T15:56:38.557Z,26.89
2023-04-23T15:59:07.668Z,27.65
2023-04-23T16:01:36.155Z,26.68
2023-04-23T16:06:34.719Z,26.60
2023-04-23T16:09:06.865Z,27.47
2023-04-23T16:11:35.656Z,26.91
2023-04-23T16:14:03.654Z,27.80
2023-04-23T16:16:31.644Z,26.21
2023-04-23T16:18:59.674Z,26.63
2023-04-23T16:21:28.101Z,26.77
2023-04-23T16:23:55.956Z,26.33
2023-04-23T16:26:25.325Z,25.71
2023-04-23T16:29:05.757Z,26.55
2023-04-23T16:31:39.736Z,26.93
2023-04-23T16:34:07.736Z,26.14
2023-04-23T16:36:35.533Z,26.06
2023-04-23T16:39:04.356Z,25.75
2023-04-23T16:41:33.677Z,26.05
2023-04-23T16:44:01.668Z,25.59
2023-04-23T16:46:31.005Z,23.90
2023-04-23T16:48:59.340Z,22.38
2023-04-23T16:51:29.886Z,21.72
2023-04-23T16:53:58.107Z,20.88
2023-04-23T16:56:26.304Z,21.33
2023-04-23T16:58:55.407Z,21.10
2023-04-23T17:01:23.339Z,21.60
2023-04-23T17:03:51.366Z,21.44
2023-04-23T17:06:28.072Z,20.90
2023-04-23T17:08:57.732Z,21.76
2023-04-23T17:11:26.096Z,20.45
2023-04-23T17:13:56.023Z,22.12
2023-04-23T17:16:25.271Z,19.90
2023-04-23T17:18:53.062Z,20.64
2023-04-23T17:21:20.944Z,20.62
2023-04-23T17:23:49.181Z,20.42
2023-04-23T17:26:16.907Z,20.63
2023-04-23T17:28:44.583Z,20.89
2023-04-23T17:31:13.688Z,20.75
2023-04-23T17:33:43.602Z,20.50
2023-04-23T17:36:11.633Z,20.45
2023-04-23T17:38:39.353Z,21.37
2023-04-23T17:41:07.054Z,21.05
2023-04-23T17:43:35.878Z,21.35
2023-04-23T17:46:03.785Z,21.26
2023-04-23T17:48:32.908Z,20.70
2023-04-23T17:51:00.812Z,20.20
2023-04-23T17:53:28.522Z,20.26
2023-04-23T17:56:00.516Z,19.81
2023-04-23T17:58:28.749Z,19.91
2023-04-23T18:00:56.770Z,21.28
2023-04-23T18:03:24.770Z,20.88
2023-04-23T18:05:54.124Z,21.01
2023-04-23T18:08:21.894Z,20.50
2023-04-23T18:10:49.606Z,21.09
2023-04-23T18:13:18.350Z,21.72
2023-04-23T18:15:49.915Z,20.40
2023-04-23T18:18:18.287Z,21.09
2023-04-23T18:20:49.271Z,20.71
2023-04-23T18:23:20.876Z,20.78
2023-04-23T18:25:48.816Z,20.60
2023-04-23T18:28:16.618Z,20.87
2023-04-23T18:30:44.492Z,20.59
2023-04-23T18:33:25.105Z,20.21
2023-04-23T18:35:58.509Z,18.83
2023-04-23T18:38:32.843Z,20.17
2023-04-23T18:41:02.851Z,19.79
2023-04-23T18:43:31.805Z,19.33
2023-04-23T18:46:00.050Z,18.87
2023-04-23T18:48:42.579Z,18.81
2023-04-23T18:51:23.039Z,18.47
2023-04-23T18:53:52.250Z,18.56
2023-04-23T18:56:19.935Z,18.92
2023-04-23T18:58:47.616Z,18.33
2023-04-23T19:01:15.318Z,19.12
2023-04-23T19:03:43.228Z,18.61
2023-04-23T19:06:11.154Z,18.97
2023-04-23T19:08:38.889Z,19.02
2023-04-23T19:11:08.093Z,18.92
2023-04-23T19:13:35.842Z,19.39
2023-04-23T19:16:04.175Z,18.88
2023-04-23T19:18:31.943Z,18.96
2023-04-23T19:20:59.926Z,18.53
2023-04-23T19:23:27.660Z,19.44
2023-04-23T19:25:55.684Z,19.82
2023-04-23T19:28:25.341Z,19.53
2023-04-23T19:30:53.198Z,19.37
2023-04-23T19:33:20.862Z,20.18
2023-04-23T19:35:48.594Z,18.78
2023-04-23T19:38:16.314Z,18.80
2023-04-23T19:40:44.192Z,19.73
2023-04-23T19:43:12.864Z,19.22
2023-04-23T19:45:42.112Z,19.26
2023-04-23T19:48:10.028Z,18.89
2023-04-23T19:50:37.719Z,19.12
2023-04-23T19:53:06.131Z,18.54
2023-04-23T19:55:34.130Z,19.12
2023-04-23T19:58:06.628Z,20.12
2023-04-23T20:00:37.452Z,19.46
2023-04-23T20:03:06.901Z,19.76
2023-04-23T20:05:34.877Z,19.97
2023-04-23T20:08:04.558Z,19.75
2023-04-23T20:10:32.289Z,19.92
2023-04-23T20:12:59.992Z,19.73
2023-04-23T20:15:28.359Z,19.73
2023-04-23T20:17:56.159Z,19.27
2023-04-23T20:20:25.679Z,18.90
2023-04-23T20:22:53.474Z,18.98
2023-04-23T20:25:25.593Z,19.58
2023-04-23T20:27:53.689Z,19.44
2023-04-23T20:30:21.397Z,18.90
2023-04-23T20:32:49.176Z,19.38
2023-04-23T20:35:17.368Z,19.24
2023-04-23T20:37:46.491Z,19.48
2023-04-23T20:40:14.442Z,18.78
2023-04-23T20:42:42.462Z,19.52
2023-04-23T20:45:13.061Z,19.45
2023-04-23T20:47:41.442Z,18.96
2023-04-23T20:50:09.923Z,19.28
2023-04-23T20:52:37.845Z,18.76
2023-04-23T20:55:07.693Z,19.63
2023-04-23T20:57:36.950Z,18.52
2023-04-23T21:00:07.200Z,19.14
2023-04-23T21:02:37.882Z,18.25
2023-04-23T21:05:07.737Z,18.54
2023-04-23T21:07:36.702Z,19.51
2023-04-23T21:10:04.740Z,18.65
2023-04-23T21:12:34.086Z,18.42
2023-04-23T21:15:01.928Z,18.30
2023-04-23T21:17:29.702Z,18.64
2023-04-23T21:19:57.421Z,18.74
2023-04-23T21:22:25.087Z,18.94
2023-04-23T21:24:52.761Z,18.74
2023-04-23T21:27:22.149Z,17.11
2023-04-23T21:29:51.516Z,18.11
2023-04-23T21:32:19.267Z,18.90
2023-04-23T21:34:46.952Z,18.15
2023-04-23T21:37:14.623Z,19.27
2023-04-23T21:39:42.701Z,18.05
2023-04-23T21:42:10.549Z,18.31
2023-04-23T21:44:38.347Z,18.52
2023-04-23T21:47:07.971Z,17.76
2023-04-23T21:49:35.841Z,17.92
2023-04-23T21:52:03.614Z,17.72
2023-04-23T21:54:31.349Z,17.32
2023-04-23T21:56:59.192Z,16.58
2023-04-23T21:59:26.972Z,16.73
2023-04-23T22:01:54.661Z,16.24
2023-04-23T22:04:27.696Z,16.20
2023-04-23T22:06:55.684Z,16.42
2023-04-23T22:09:23.494Z,16.19
2023-04-23T22:12:01.543Z,16.61
2023-04-23T22:14:30.555Z,16.54
2023-04-23T22:16:59.480Z,17.26
2023-04-23T22:19:28.655Z,16.50
2023-04-23T22:21:56.673Z,15.02
2023-04-23T22:24:24.754Z,16.14
2023-04-23T22:26:52.687Z,15.68
2023-04-23T22:29:20.414Z,15.79
2023-04-23T22:31:48.162Z,16.10
2023-04-23T22:34:15.857Z,15.75
2023-04-23T22:36:44.896Z,16.38
2023-04-23T22:39:12.941Z,16.88
2023-04-23T22:44:39.600Z,17.19
2023-04-23T22:47:07.377Z,17.26
2023-04-23T22:49:35.764Z,17.15
2023-04-23T22:52:05.281Z,17.00
2023-04-23T22:54:33.008Z,15.69
2023-04-23T22:57:01.115Z,17.40
2023-04-23T22:59:28.852Z,16.55
2023-04-23T23:01:56.766Z,16.75
2023-04-23T23:04:24.536Z,17.32
2023-04-23T23:06:52.234Z,17.23
2023-04-23T23:09:21.368Z,17.38
2023-04-23T23:11:49.084Z,17.08
2023-04-23T23:14:16.912Z,17.47
2023-04-23T23:16:44.831Z,16.21
2023-04-23T23:19:13.253Z,16.15
2023-04-23T23:21:41.342Z,17.14
2023-04-23T23:24:09.241Z,17.48
2023-04-23T23:26:38.352Z,16.87
2023-04-23T23:29:06.113Z,17.00
2023-04-23T23:31:36.938Z,16.39
2023-04-23T23:34:04.833Z,16.52
2023-04-23T23:36:33.843Z,17.04
2023-04-23T23:39:01.852Z,16.86
2023-04-23T23:41:29.580Z,16.50
2023-04-23T23:43:58.647Z,17.72
2023-04-23T23:46:26.561Z,17.27
2023-04-23T23:48:54.369Z,17.12
2023-04-23T23:51:22.130Z,16.98
2023-04-23T23:53:49.932Z,17.25
2023-04-23T23:56:17.689Z,17.22
2023-04-23T23:58:45.397Z,17.58
